createdAt,value
2024-03-02T00:02:03.319Z,99.45
2024-03-02T00:04:34.236Z,98.22
2024-03-02T00:07:13.265Z,106.30
2024-03-02T00:09:42.173Z,102.82
2024-03-02T00:12:19.751Z,98.82
2024-03-02T00:14:47.912Z,97.30
2024-03-02T00:17:26.298Z,101.50
2024-03-02T00:19:54.470Z,97.28
2024-03-02T00:22:22.493Z,112.47
2024-03-02T00:24:50.446Z,113.45
2024-03-02T00:27:26.421Z,106.55
2024-03-02T00:29:54.668Z,109.25
2024-03-02T00:32:22.652Z,107.68
2024-03-02T00:34:51.274Z,97.25
2024-03-02T00:37:19.686Z,95.40
2024-03-02T00:39:50.832Z,93.10
2024-03-02T00:42:21.300Z,104.18
2024-03-02T00:44:49.298Z,95.35
2024-03-02T00:47:17.313Z,109.40
2024-03-02T00:49:48.041Z,94.07
2024-03-02T00:52:15.987Z,110.22
2024-03-02T00:54:48.688Z,113.53
2024-03-02T00:57:17.163Z,110.47
2024-03-02T00:59:47.627Z,100.93
2024-03-02T01:02:15.791Z,99.03
2024-03-02T01:04:44.036Z,102.55
2024-03-02T01:07:14.749Z,97.90
2024-03-02T01:09:42.959Z,108.10
2024-03-02T01:12:35.765Z,104.03
2024-03-02T01:15:09.514Z,108.05
2024-03-02T01:17:56.301Z,116.45
2024-03-02T01:20:24.753Z,105.78
2024-03-02T01:22:56.846Z,107.32
2024-03-02T01:25:31.114Z,101.22
2024-03-02T01:27:59.578Z,113.50
2024-03-02T01:30:30.175Z,113.82
2024-03-02T01:33:00.465Z,105.90
2024-03-02T01:35:34.160Z,114.78
2024-03-02T01:38:03.020Z,116.05
2024-03-02T01:40:31.150Z,107.57
2024-03-02T01:43:00.415Z,125.35
2024-03-02T01:45:37.433Z,115.13
2024-03-02T01:48:08.551Z,112.05
2024-03-02T01:50:37.642Z,102.40
2024-03-02T01:53:19.129Z,124.65
2024-03-02T01:55:47.409Z,100.28
2024-03-02T01:58:16.321Z,117.00
2024-03-02T02:00:46.759Z,116.78
2024-03-02T02:03:14.988Z,122.25
2024-03-02T02:05:43.858Z,116.90
2024-03-02T02:08:12.041Z,114.68
2024-03-02T02:10:42.628Z,112.70
2024-03-02T02:13:12.833Z,120.90
2024-03-02T02:15:41.318Z,133.32
2024-03-02T02:18:19.098Z,124.63
2024-03-02T02:20:47.178Z,129.77
2024-03-02T02:23:17.726Z,118.38
2024-03-02T02:25:46.282Z,131.55
2024-03-02T02:28:17.184Z,121.50
2024-03-02T02:30:45.458Z,115.85
2024-03-02T02:33:14.018Z,129.95
2024-03-02T02:35:42.397Z,123.30
2024-03-02T02:38:13.817Z,118.13
2024-03-02T02:40:42.908Z,116.13
2024-03-02T02:43:10.887Z,118.78
2024-03-02T02:45:42.114Z,123.68
2024-03-02T02:48:18.664Z,123.88
2024-03-02T02:50:47.404Z,115.30
2024-03-02T02:53:16.157Z,118.93
2024-03-02T02:55:45.128Z,112.68
2024-03-02T02:58:13.701Z,103.70
2024-03-02T03:00:44.801Z,110.78
2024-03-02T03:03:12.985Z,119.82
2024-03-02T03:05:41.123Z,115.18
2024-03-02T03:08:09.175Z,112.40
2024-03-02T03:10:37.305Z,118.13
2024-03-02T03:13:05.549Z,124.32
2024-03-02T03:15:33.708Z,120.80
2024-03-02T03:18:01.803Z,120.35
2024-03-02T03:20:29.948Z,116.40
2024-03-02T03:22:59.242Z,122.43
2024-03-02T03:25:27.648Z,116.97
2024-03-02T03:27:55.853Z,120.63
2024-03-02T03:30:23.966Z,128.85
2024-03-02T03:32:54.882Z,121.45
2024-03-02T03:35:22.935Z,121.63
2024-03-02T03:37:50.939Z,124.40
2024-03-02T03:40:20.343Z,123.88
2024-03-02T03:42:48.435Z,121.80
2024-03-02T03:45:16.580Z,130.02
2024-03-02T03:47:44.958Z,133.90
2024-03-02T03:50:13.817Z,112.68
2024-03-02T03:52:41.764Z,123.20
2024-03-02T03:55:10.368Z,114.15
2024-03-02T03:57:39.348Z,108.82
2024-03-02T04:00:11.521Z,120.57
2024-03-02T04:02:42.139Z,124.85
2024-03-02T04:05:12.657Z,122.60
2024-03-02T04:07:44.567Z,120.55
2024-03-02T04:10:14.086Z,113.85
2024-03-02T04:12:42.386Z,116.18
2024-03-02T04:15:10.870Z,122.68
2024-03-02T04:17:38.936Z,120.32
2024-03-02T04:20:08.379Z,121.60
2024-03-02T04:22:37.233Z,113.38
2024-03-02T04:25:06.277Z,117.55
2024-03-02T04:27:35.150Z,123.13
2024-03-02T04:30:03.921Z,116.55
2024-03-02T04:32:32.813Z,118.85
2024-03-02T04:35:00.889Z,114.95
2024-03-02T04:37:28.902Z,112.03
2024-03-02T04:39:56.985Z,114.45
2024-03-02T04:42:26.112Z,121.13
2024-03-02T04:44:54.207Z,110.07
2024-03-02T04:47:22.331Z,116.30
2024-03-02T04:49:50.338Z,115.43
2024-03-02T04:52:18.603Z,104.63
2024-03-02T04:55:04.984Z,105.00
2024-03-02T04:57:33.289Z,113.00
2024-03-02T05:00:04.660Z,125.10
2024-03-02T05:02:34.706Z,104.80
2024-03-02T05:05:09.874Z,117.07
2024-03-02T05:07:38.119Z,115.47
2024-03-02T05:10:10.501Z,117.53
2024-03-02T05:12:44.626Z,112.47
2024-03-02T05:15:14.580Z,113.68
2024-03-02T05:17:46.596Z,110.82
2024-03-02T05:20:14.946Z,111.20
2024-03-02T05:22:44.204Z,118.38
2024-03-02T05:25:12.447Z,116.50
2024-03-02T05:27:45.660Z,117.07
2024-03-02T05:30:14.903Z,110.20
2024-03-02T05:32:43.475Z,118.25
2024-03-02T05:35:16.625Z,121.35
2024-03-02T05:40:44.657Z,131.77
2024-03-02T05:43:19.960Z,119.80
2024-03-02T05:46:02.513Z,110.68
2024-03-02T05:48:33.817Z,121.53
2024-03-02T05:51:04.805Z,112.80
2024-03-02T05:53:38.829Z,116.72
2024-03-02T05:56:11.199Z,110.10
2024-03-02T05:59:03.442Z,108.43
2024-03-02T06:01:32.587Z,105.95
2024-03-02T06:04:07.413Z,112.75
2024-03-02T06:07:02.062Z,106.85
2024-03-02T06:09:59.112Z,103.30
2024-03-02T06:12:50.439Z,111.78
2024-03-02T06:15:51.815Z,103.82
2024-03-02T06:19:07.482Z,110.85
2024-03-02T06:21:38.669Z,109.82
2024-03-02T06:28:12.648Z,101.07
2024-03-02T06:30:50.760Z,98.72
2024-03-02T06:33:21.670Z,100.07
2024-03-02T06:36:06.021Z,101.28
2024-03-02T06:38:44.079Z,96.60
2024-03-02T06:41:25.498Z,103.77
2024-03-02T06:44:27.310Z,101.28
2024-03-02T06:46:58.770Z,104.38
2024-03-02T06:57:01.184Z,106.13
2024-03-02T07:01:17.081Z,97.30
2024-03-02T07:04:06.164Z,90.18
2024-03-02T07:07:10.668Z,86.97
2024-03-02T07:10:47.785Z,84.72
2024-03-02T07:13:19.708Z,94.90
2024-03-02T07:19:49.284Z,94.00
2024-03-02T07:22:24.205Z,90.53
2024-03-02T07:26:54.685Z,98.53
2024-03-02T07:28:19.729Z,96.55
2024-03-02T07:31:09.084Z,98.50
2024-03-02T07:33:54.157Z,88.00
2024-03-02T07:36:31.362Z,89.43
2024-03-02T07:39:06.744Z,72.47
2024-03-02T07:41:42.143Z,86.32
2024-03-02T07:44:35.979Z,75.28
2024-03-02T07:47:13.828Z,84.15
2024-03-02T07:49:48.040Z,77.30
2024-03-02T07:52:26.217Z,86.72
2024-03-02T07:55:46.097Z,72.85
2024-03-02T07:59:15.904Z,85.95
2024-03-02T08:02:08.958Z,74.00
2024-03-02T08:04:46.276Z,80.75
2024-03-02T08:07:15.237Z,80.43
2024-03-02T08:09:43.959Z,81.35
2024-03-02T08:12:12.700Z,87.68
2024-03-02T08:14:46.778Z,92.60
2024-03-02T08:17:14.949Z,85.80
2024-03-02T08:19:43.121Z,85.03
2024-03-02T08:22:11.643Z,87.53
2024-03-02T08:24:42.786Z,92.03
2024-03-02T08:27:11.459Z,89.07
2024-03-02T08:30:18.970Z,81.38
2024-03-02T08:32:49.773Z,98.50
2024-03-02T08:35:23.919Z,81.97
2024-03-02T08:37:58.635Z,96.95
2024-03-02T08:40:37.576Z,98.93
2024-03-02T08:43:11.436Z,99.60
2024-03-02T08:45:43.062Z,105.78
2024-03-02T08:48:11.334Z,90.72
2024-03-02T08:50:39.947Z,99.43
2024-03-02T08:53:08.456Z,90.30
2024-03-02T08:55:36.665Z,99.18
2024-03-02T08:58:13.221Z,96.65
2024-03-02T09:00:49.963Z,98.43
2024-03-02T09:03:23.194Z,101.53
2024-03-02T09:05:52.806Z,95.88
2024-03-02T09:08:24.120Z,87.53
2024-03-02T09:10:52.413Z,95.30
2024-03-02T09:13:23.386Z,95.15
2024-03-02T09:15:54.337Z,85.95
2024-03-02T09:18:25.905Z,89.82
2024-03-02T09:20:59.222Z,100.38
2024-03-02T09:23:35.685Z,96.35
2024-03-02T09:26:04.820Z,91.65
2024-03-02T09:28:39.767Z,93.53
2024-03-02T09:31:20.641Z,96.38
2024-03-02T09:34:03.253Z,105.00
2024-03-02T09:37:48.308Z,102.93
2024-03-02T09:40:59.723Z,97.22
2024-03-02T09:43:40.606Z,106.43
2024-03-02T09:46:14.535Z,102.53
2024-03-02T09:48:51.015Z,129.50
2024-03-02T09:51:48.108Z,128.85
2024-03-02T09:54:26.726Z,115.05
2024-03-02T09:56:55.616Z,103.82
2024-03-02T09:59:29.286Z,110.22
2024-03-02T10:02:10.452Z,100.03
2024-03-02T10:08:05.982Z,97.40
2024-03-02T10:10:49.808Z,89.55
2024-03-02T10:13:29.566Z,99.45
2024-03-02T10:16:16.703Z,100.43
2024-03-02T10:18:49.991Z,92.88
2024-03-02T10:21:27.755Z,86.63
2024-03-02T10:24:19.061Z,75.30
2024-03-02T10:26:49.159Z,93.85
2024-03-02T10:29:31.277Z,87.25
2024-03-02T10:32:00.598Z,86.40
2024-03-02T10:39:00.391Z,88.25
2024-03-02T10:44:51.475Z,73.00
2024-03-02T10:47:34.218Z,69.63
2024-03-02T10:50:44.478Z,60.45
2024-03-02T10:54:30.030Z,57.92
2024-03-02T10:58:16.138Z,66.78
2024-03-02T11:01:03.264Z,57.60
2024-03-02T11:04:20.440Z,58.23
2024-03-02T11:07:11.810Z,65.55
2024-03-02T11:10:16.677Z,60.43
2024-03-02T11:13:26.483Z,65.07
2024-03-02T11:17:22.113Z,61.58
2024-03-02T11:20:30.177Z,67.57
2024-03-02T11:23:28.039Z,66.47
2024-03-02T11:26:33.243Z,70.55
2024-03-02T11:29:44.609Z,69.10
2024-03-02T11:33:01.337Z,59.63
2024-03-02T11:37:05.451Z,56.10
2024-03-02T11:44:21.779Z,56.67
2024-03-02T11:47:13.041Z,65.07
2024-03-02T11:50:50.428Z,63.55
2024-03-02T12:21:48.306Z,56.72
2024-03-02T12:24:17.276Z,49.58
2024-03-02T12:26:53.622Z,52.78
2024-03-02T12:29:27.793Z,46.17
2024-03-02T12:31:57.881Z,45.92
2024-03-02T12:34:46.218Z,44.40
2024-03-02T12:37:37.553Z,58.33
2024-03-02T12:40:38.367Z,42.95
2024-03-02T12:43:09.818Z,45.05
2024-03-02T12:45:44.692Z,50.17
2024-03-02T12:48:19.234Z,35.97
2024-03-02T12:53:38.978Z,35.28
2024-03-02T12:56:15.486Z,44.80
2024-03-02T12:58:56.509Z,45.17
2024-03-02T13:01:27.976Z,40.50
2024-03-02T13:04:07.377Z,50.20
2024-03-02T13:07:13.472Z,40.00
2024-03-02T13:10:15.269Z,40.58
2024-03-02T13:15:42.303Z,52.25
2024-03-02T13:18:17.664Z,48.30
2024-03-02T13:20:47.997Z,48.55
2024-03-02T13:23:37.673Z,42.00
2024-03-02T13:26:27.432Z,41.10
2024-03-02T13:29:32.598Z,51.08
2024-03-02T13:32:33.532Z,43.50
2024-03-02T13:38:22.816Z,45.67
2024-03-02T13:39:00.175Z,52.15
2024-03-02T13:41:03.798Z,36.17
2024-03-02T13:43:46.956Z,38.65
2024-03-02T13:46:35.713Z,37.03
2024-03-02T13:49:17.495Z,51.28
2024-03-02T13:54:48.727Z,35.83
2024-03-02T13:57:27.562Z,47.65
2024-03-02T13:59:58.262Z,40.30
2024-03-02T14:02:32.992Z,39.28
2024-03-02T14:05:05.559Z,44.30
2024-03-02T14:08:16.412Z,51.42
2024-03-02T14:10:45.192Z,58.35
2024-03-02T14:13:30.797Z,52.38
2024-03-02T14:16:04.987Z,57.63
2024-03-02T14:18:39.632Z,45.45
2024-03-02T14:21:13.479Z,60.40
2024-03-02T14:23:42.169Z,54.10
2024-03-02T14:26:25.296Z,58.17
2024-03-02T14:29:05.834Z,47.08
2024-03-02T14:31:41.669Z,49.17
2024-03-02T14:34:13.096Z,46.90
2024-03-02T14:36:45.197Z,45.28
2024-03-02T14:39:13.423Z,51.55
2024-03-02T14:41:44.730Z,50.70
2024-03-02T14:44:13.126Z,37.35
2024-03-02T14:46:42.955Z,39.50
2024-03-02T14:49:15.328Z,46.25
2024-03-02T14:51:46.601Z,50.80
2024-03-02T14:54:14.894Z,43.45
2024-03-02T14:56:50.225Z,39.85
2024-03-02T14:59:18.494Z,42.00
2024-03-02T15:01:47.684Z,39.97
2024-03-02T15:04:30.722Z,55.13
2024-03-02T15:07:07.940Z,45.65
2024-03-02T15:09:42.239Z,42.42
2024-03-02T15:12:23.592Z,52.15
2024-03-02T15:15:10.316Z,62.53
2024-03-02T15:17:38.959Z,62.22
2024-03-02T15:20:20.889Z,56.92
2024-03-02T15:23:32.746Z,52.20
2024-03-02T15:26:17.185Z,57.05
2024-03-02T15:29:03.524Z,49.40
2024-03-02T15:32:53.265Z,50.85
2024-03-02T15:35:59.937Z,50.90
2024-03-02T15:38:46.680Z,59.55
2024-03-02T15:41:30.350Z,62.08
2024-03-02T15:44:11.279Z,55.03
2024-03-02T15:46:55.005Z,71.03
2024-03-02T15:49:59.881Z,65.60
2024-03-02T15:54:17.494Z,66.18
2024-03-02T15:56:50.127Z,65.07
2024-03-02T16:00:07.011Z,60.50
2024-03-02T16:03:04.050Z,71.40
2024-03-02T16:05:42.258Z,82.75
2024-03-02T16:09:29.804Z,71.78
